createdAt,value
2022-09-27T00:03:30.936Z,11.62
2022-09-27T00:08:33.596Z,11.60
2022-09-27T00:13:35.158Z,11.49
2022-09-27T00:18:36.583Z,11.52
2022-09-27T00:23:39.096Z,11.52
2022-09-27T00:28:40.658Z,11.54
2022-09-27T00:33:42.060Z,11.58
2022-09-27T00:38:43.685Z,11.64
2022-09-27T00:43:50.977Z,11.70
2022-09-27T00:49:04.769Z,11.74
2022-09-27T00:54:10.106Z,11.78
2022-09-27T00:59:20.112Z,11.82
2022-09-27T01:04:24.556Z,11.79
2022-09-27T01:09:27.327Z,11.79
2022-09-27T01:14:51.195Z,11.77
2022-09-27T01:20:32.728Z,11.72
2022-09-27T01:25:56.150Z,11.70
2022-09-27T01:31:09.352Z,11.66
2022-09-27T01:36:50.418Z,11.62
2022-09-27T01:42:13.125Z,11.58
2022-09-27T01:47:19.065Z,11.54
2022-09-27T01:52:26.043Z,11.51
2022-09-27T01:57:35.187Z,11.46
2022-09-27T02:02:55.644Z,11.44
2022-09-27T02:08:05.589Z,11.43
2022-09-27T02:13:17.559Z,11.39
2022-09-27T02:18:27.585Z,11.35
2022-09-27T02:23:41.967Z,11.32
2022-09-27T02:28:49.852Z,11.36
2022-09-27T02:33:56.735Z,11.36
2022-09-27T02:38:58.731Z,11.34
2022-09-27T02:44:04.811Z,11.33
2022-09-27T02:49:33.092Z,11.33
2022-09-27T02:55:18.127Z,11.32
2022-09-27T03:00:21.895Z,11.35
2022-09-27T03:05:35.197Z,11.36
2022-09-27T03:10:36.601Z,11.41
2022-09-27T03:15:37.999Z,11.38
2022-09-27T03:20:39.468Z,11.39
2022-09-27T03:25:41.423Z,11.42
2022-09-27T03:30:45.399Z,11.35
2022-09-27T03:35:46.888Z,11.34
2022-09-27T03:40:48.313Z,11.33
2022-09-27T03:45:50.258Z,11.33
2022-09-27T03:50:51.771Z,11.35
2022-09-27T03:55:53.843Z,11.36
2022-09-27T04:00:55.250Z,11.34
2022-09-27T04:05:56.805Z,11.31
2022-09-27T04:10:58.439Z,11.27
2022-09-27T04:15:59.824Z,11.20
2022-09-27T04:21:02.098Z,11.23
2022-09-27T04:26:03.702Z,11.25
2022-09-27T04:31:05.356Z,11.23
2022-09-27T04:36:25.567Z,11.27
2022-09-27T04:41:28.448Z,11.25
2022-09-27T04:46:34.661Z,11.24
2022-09-27T04:51:36.210Z,11.14
2022-09-27T04:56:37.651Z,11.08
2022-09-27T05:01:39.276Z,11.08
2022-09-27T05:06:40.755Z,11.10
2022-09-27T05:11:42.204Z,11.12
2022-09-27T05:16:43.838Z,11.12
2022-09-27T05:21:45.316Z,11.06
2022-09-27T05:26:47.483Z,11.02
2022-09-27T05:31:49.619Z,11.00
2022-09-27T05:36:51.027Z,10.93
2022-09-27T05:41:54.795Z,10.91
2022-09-27T05:46:56.374Z,10.90
2022-09-27T05:51:57.850Z,10.85
2022-09-27T05:57:00.428Z,10.78
2022-09-27T06:02:02.163Z,10.72
2022-09-27T06:07:03.756Z,10.71
2022-09-27T06:12:05.179Z,10.68
2022-09-27T06:17:06.718Z,10.63
2022-09-27T06:22:08.147Z,10.63
2022-09-27T06:27:09.964Z,10.66
2022-09-27T06:32:11.402Z,10.62
2022-09-27T06:37:12.810Z,10.71
2022-09-27T06:42:14.172Z,10.71
2022-09-27T06:47:19.577Z,10.77
2022-09-27T06:52:21.047Z,10.77
2022-09-27T06:57:41.199Z,10.75
2022-09-27T07:02:42.603Z,10.91
2022-09-27T07:07:44.146Z,11.07
2022-09-27T07:12:48.838Z,11.20
2022-09-27T07:17:58.362Z,11.26
2022-09-27T07:22:59.778Z,11.27
2022-09-27T07:28:02.624Z,11.42
2022-09-27T07:33:06.372Z,12.11
2022-09-27T07:38:10.079Z,12.73
2022-09-27T07:43:12.326Z,12.97
2022-09-27T07:48:16.117Z,12.74
2022-09-27T07:53:17.687Z,12.61
2022-09-27T07:58:20.078Z,12.38
2022-09-27T08:03:21.634Z,12.41
2022-09-27T08:08:24.239Z,12.31
2022-09-27T08:13:25.759Z,12.40
2022-09-27T08:18:27.201Z,12.58
2022-09-27T08:23:29.221Z,12.97
2022-09-27T08:28:31.931Z,13.32
2022-09-27T08:33:36.785Z,13.55
2022-09-27T08:38:42.028Z,14.02
2022-09-27T08:43:57.663Z,13.49
2022-09-27T08:49:07.050Z,13.53
2022-09-27T08:54:20.176Z,13.43
2022-09-27T08:59:27.311Z,13.16
2022-09-27T09:04:36.767Z,13.19
2022-09-27T09:09:45.062Z,13.14
2022-09-27T09:15:11.159Z,13.11
2022-09-27T09:20:26.975Z,13.95
2022-09-27T09:25:51.786Z,14.50
2022-09-27T09:31:31.379Z,14.83
2022-09-27T09:36:39.556Z,14.43
2022-09-27T09:41:49.405Z,13.70
2022-09-27T09:46:58.015Z,13.29
2022-09-27T09:52:09.003Z,13.69
2022-09-27T09:57:10.625Z,13.72
2022-09-27T10:02:20.130Z,13.73
2022-09-27T10:07:24.202Z,13.61
2022-09-27T10:12:26.359Z,13.54
2022-09-27T10:17:35.746Z,13.68
2022-09-27T10:22:45.268Z,13.78
2022-09-27T10:27:50.360Z,14.32
2022-09-27T10:32:57.062Z,14.32
2022-09-27T10:38:22.836Z,13.74
2022-09-27T10:43:29.781Z,12.36
2022-09-27T10:48:31.849Z,11.47
2022-09-27T10:53:36.551Z,11.02
2022-09-27T10:58:38.767Z,10.57
2022-09-27T11:03:49.842Z,10.20
2022-09-27T11:08:53.241Z,10.23
2022-09-27T11:14:08.024Z,9.99
2022-09-27T11:19:31.176Z,9.97
2022-09-27T11:24:43.327Z,10.07
2022-09-27T11:30:09.003Z,10.21
2022-09-27T11:35:42.028Z,10.17
2022-09-27T11:40:52.509Z,10.19
2022-09-27T11:46:28.165Z,10.32
2022-09-27T11:51:40.391Z,10.42
2022-09-27T11:57:05.556Z,10.48
2022-09-27T12:02:35.141Z,10.67
2022-09-27T12:07:53.087Z,10.48
2022-09-27T12:12:58.284Z,10.38
2022-09-27T12:18:27.328Z,10.49
2022-09-27T12:23:40.287Z,10.56
2022-09-27T12:29:00.704Z,11.27
2022-09-27T12:34:04.809Z,11.66
2022-09-27T12:39:36.856Z,11.79
2022-09-27T12:44:41.154Z,12.15
2022-09-27T12:50:04.328Z,12.16
2022-09-27T12:55:45.312Z,12.17
2022-09-27T13:00:56.341Z,11.98
2022-09-27T13:06:34.396Z,11.72
2022-09-27T13:11:50.843Z,12.16
2022-09-27T13:16:52.620Z,12.63
2022-09-27T13:21:56.789Z,13.35
2022-09-27T13:27:01.547Z,13.38
2022-09-27T13:32:14.868Z,13.24
2022-09-27T13:37:37.646Z,13.01
2022-09-27T13:42:49.910Z,12.64
2022-09-27T13:47:53.456Z,12.35
2022-09-27T13:53:06.924Z,12.17
2022-09-27T13:58:34.142Z,11.92
2022-09-27T14:03:42.343Z,11.86
2022-09-27T14:08:50.915Z,11.78
2022-09-27T14:13:53.704Z,11.69
2022-09-27T14:18:58.325Z,12.04
2022-09-27T14:24:27.820Z,12.67
2022-09-27T14:29:33.472Z,12.70
2022-09-27T14:34:35.180Z,12.60
2022-09-27T14:39:37.861Z,12.50
2022-09-27T14:44:44.374Z,12.43
2022-09-27T14:49:50.824Z,12.79
2022-09-27T14:55:00.942Z,12.79
2022-09-27T15:00:21.751Z,12.56
2022-09-27T15:05:24.621Z,12.45
2022-09-27T15:10:31.348Z,12.60
2022-09-27T15:15:39.816Z,12.53
2022-09-27T15:20:53.697Z,12.53
2022-09-27T15:26:10.071Z,12.55
2022-09-27T15:31:13.602Z,12.58
2022-09-27T15:36:15.823Z,12.56
2022-09-27T15:41:23.216Z,12.62
2022-09-27T15:46:29.233Z,12.62
2022-09-27T15:52:02.458Z,12.53
2022-09-27T15:57:05.849Z,12.44
2022-09-27T16:02:16.130Z,12.33
2022-09-27T16:07:17.734Z,12.26
2022-09-27T16:12:19.157Z,12.23
2022-09-27T16:17:20.567Z,12.18
2022-09-27T16:22:22.102Z,12.12
2022-09-27T16:27:25.249Z,12.10
2022-09-27T16:32:27.168Z,12.02
2022-09-27T16:37:30.275Z,11.88
2022-09-27T16:42:31.914Z,11.71
2022-09-27T16:47:34.079Z,11.61
2022-09-27T16:52:35.473Z,11.51
2022-09-27T16:57:38.225Z,11.49
2022-09-27T17:02:40.269Z,11.51
2022-09-27T17:07:41.877Z,11.46
2022-09-27T17:12:43.314Z,11.46
2022-09-27T17:17:49.156Z,11.44
2022-09-27T17:22:50.683Z,11.31
2022-09-27T17:27:52.143Z,11.18
2022-09-27T17:32:53.606Z,11.13
2022-09-27T17:37:55.090Z,10.88
2022-09-27T17:42:56.503Z,10.64
2022-09-27T17:48:16.668Z,10.46
2022-09-27T17:53:18.083Z,10.33
2022-09-27T17:58:20.761Z,10.20
2022-09-27T18:03:22.177Z,10.11
2022-09-27T18:08:24.452Z,10.00
2022-09-27T18:13:25.877Z,9.86
2022-09-27T18:18:28.159Z,9.77
2022-09-27T18:23:31.700Z,9.76
2022-09-27T18:28:33.202Z,9.80
2022-09-27T18:33:35.538Z,9.83
2022-09-27T18:38:37.360Z,9.82
2022-09-27T18:43:39.794Z,9.88
2022-09-27T18:48:41.589Z,9.91
2022-09-27T18:53:43.898Z,9.87
2022-09-27T18:58:45.433Z,9.69
2022-09-27T19:03:47.831Z,9.50
2022-09-27T19:08:58.558Z,9.42
2022-09-27T19:14:03.303Z,9.47
2022-09-27T19:19:04.774Z,9.62
2022-09-27T19:24:06.243Z,9.72
2022-09-27T19:29:07.803Z,9.79
2022-09-27T19:34:09.241Z,9.86
2022-09-27T19:39:10.651Z,9.94
2022-09-27T19:44:13.207Z,9.98
2022-09-27T19:49:14.680Z,9.94
2022-09-27T19:54:16.439Z,9.85
2022-09-27T19:59:18.126Z,9.89
2022-09-27T20:04:19.664Z,9.78
2022-09-27T20:09:21.175Z,9.74
2022-09-27T20:14:22.592Z,9.80
2022-09-27T20:19:24.515Z,9.86
2022-09-27T20:24:26.074Z,9.98
2022-09-27T20:29:27.543Z,10.06
2022-09-27T20:34:29.471Z,10.18
2022-09-27T20:39:30.919Z,10.29
2022-09-27T20:44:33.281Z,10.38
2022-09-27T20:49:34.750Z,10.44
2022-09-27T20:54:36.230Z,10.50
2022-09-27T20:59:37.719Z,10.56
2022-09-27T21:04:39.140Z,10.63
2022-09-27T21:09:40.896Z,10.67
2022-09-27T21:14:42.354Z,10.72
2022-09-27T21:19:43.783Z,10.71
2022-09-27T21:24:45.411Z,10.72
2022-09-27T21:29:46.900Z,10.70
2022-09-27T21:34:48.334Z,10.68
2022-09-27T21:39:49.883Z,10.66
2022-09-27T21:44:51.309Z,10.66
2022-09-27T21:49:52.734Z,10.66
2022-09-27T21:54:54.273Z,10.64
2022-09-27T21:59:56.594Z,10.58
2022-09-27T22:04:59.616Z,10.59
2022-09-27T22:10:01.062Z,10.57
2022-09-27T22:15:02.551Z,10.54
2022-09-27T22:20:04.216Z,10.53
2022-09-27T22:25:05.934Z,10.56
2022-09-27T22:30:07.874Z,10.59
2022-09-27T22:35:09.646Z,10.62
2022-09-27T22:40:11.384Z,10.66
2022-09-27T22:45:13.194Z,10.70
2022-09-27T22:50:14.691Z,10.77
2022-09-27T22:55:16.230Z,10.79
2022-09-27T23:00:17.653Z,10.79
2022-09-27T23:05:19.060Z,10.80
2022-09-27T23:10:23.342Z,10.85
2022-09-27T23:15:24.821Z,10.84
2022-09-27T23:20:26.942Z,10.84
2022-09-27T23:25:28.364Z,10.83
2022-09-27T23:30:31.773Z,10.82
2022-09-27T23:35:33.827Z,10.79
2022-09-27T23:40:36.588Z,10.82
2022-09-27T23:45:38.374Z,10.83
2022-09-27T23:50:44.002Z,10.86
2022-09-27T23:55:45.499Z,10.89
